createdAt,value
2022-08-22T00:00:11.611Z,74.79
2022-08-22T00:03:08.941Z,73.94
2022-08-22T00:03:12.195Z,73.91
2022-08-22T00:03:15.561Z,74.25
2022-08-22T00:03:18.473Z,74.72
2022-08-22T00:05:59.090Z,74.83
2022-08-22T00:08:38.582Z,74.99
2022-08-22T00:11:43.602Z,74.82
2022-08-22T00:14:25.765Z,74.72
2022-08-22T00:17:07.181Z,74.60
2022-08-22T00:19:42.805Z,74.56
2022-08-22T00:22:30.677Z,74.59
2022-08-22T00:25:49.761Z,74.66
2022-08-22T00:28:38.958Z,74.64
2022-08-22T00:31:42.552Z,74.69
2022-08-22T00:34:24.310Z,74.80
2022-08-22T00:37:14.097Z,74.90
2022-08-22T00:40:05.318Z,75.00
2022-08-22T00:43:07.949Z,75.25
2022-08-22T00:45:59.543Z,75.38
2022-08-22T00:48:48.080Z,75.40
2022-08-22T00:51:40.062Z,75.56
2022-08-22T00:54:46.932Z,75.57
2022-08-22T00:57:29.546Z,75.52
2022-08-22T01:00:13.452Z,75.38
2022-08-22T01:03:20.681Z,75.55
2022-08-22T01:06:15.120Z,75.54
2022-08-22T01:09:22.923Z,75.49
2022-08-22T01:12:26.278Z,75.31
2022-08-22T01:14:58.701Z,75.28
2022-08-22T01:18:08.758Z,75.15
2022-08-22T01:21:24.789Z,75.13
2022-08-22T01:24:19.008Z,75.12
2022-08-22T01:27:24.674Z,75.05
2022-08-22T01:30:21.867Z,75.12
2022-08-22T01:33:20.245Z,75.14
2022-08-22T01:36:01.731Z,75.21
2022-08-22T01:39:14.342Z,75.33
2022-08-22T01:42:02.686Z,75.58
2022-08-22T01:44:47.630Z,75.64
2022-08-22T01:47:26.134Z,75.69
2022-08-22T01:49:59.885Z,75.82
2022-08-22T01:53:09.199Z,75.99
2022-08-22T01:56:00.882Z,75.99
2022-08-22T01:58:33.729Z,75.77
2022-08-22T02:01:41.900Z,75.60
2022-08-22T02:04:23.397Z,75.42
2022-08-22T02:07:24.161Z,75.32
2022-08-22T02:10:07.474Z,75.22
2022-08-22T02:12:49.446Z,75.20
2022-08-22T02:15:28.198Z,75.20
2022-08-22T02:18:10.538Z,75.11
2022-08-22T02:20:43.700Z,74.93
2022-08-22T02:23:24.340Z,74.91
2022-08-22T02:26:02.956Z,75.30
2022-08-22T02:29:06.150Z,75.21
2022-08-22T02:31:47.041Z,75.29
2022-08-22T02:34:32.781Z,75.29
2022-08-22T02:37:11.907Z,75.39
2022-08-22T02:39:48.152Z,75.43
2022-08-22T02:42:27.404Z,75.54
2022-08-22T02:45:22.966Z,75.39
2022-08-22T02:48:04.498Z,75.42
2022-08-22T02:50:46.975Z,75.59
2022-08-22T02:53:22.141Z,75.43
2022-08-22T02:56:22.930Z,75.23
2022-08-22T02:59:19.738Z,75.04
2022-08-22T03:01:58.280Z,74.86
2022-08-22T03:04:46.195Z,74.93
2022-08-22T03:07:28.437Z,74.95
2022-08-22T03:10:27.706Z,74.95
2022-08-22T03:13:18.984Z,74.94
2022-08-22T03:16:02.292Z,74.91
2022-08-22T03:19:08.187Z,74.83
2022-08-22T03:22:03.688Z,74.83
2022-08-22T03:24:40.271Z,74.81
2022-08-22T03:27:33.272Z,74.86
2022-08-22T03:30:11.985Z,74.95
2022-08-22T03:32:59.281Z,75.12
2022-08-22T03:35:38.368Z,75.21
2022-08-22T03:38:32.231Z,75.43
2022-08-22T03:41:26.026Z,75.51
2022-08-22T03:44:17.549Z,75.37
2022-08-22T03:47:03.119Z,75.49
2022-08-22T03:49:55.670Z,75.60
2022-08-22T03:53:04.129Z,75.71
2022-08-22T03:56:11.994Z,75.71
2022-08-22T03:59:18.520Z,75.64
2022-08-22T04:02:42.903Z,75.65
2022-08-22T04:05:26.354Z,75.59
2022-08-22T04:08:09.937Z,75.96
2022-08-22T04:11:02.619Z,76.28
2022-08-22T04:14:14.697Z,76.56
2022-08-22T04:17:07.001Z,76.77
2022-08-22T04:19:55.117Z,76.78
2022-08-22T04:22:33.998Z,77.00
2022-08-22T04:25:30.222Z,77.37
2022-08-22T04:28:09.435Z,77.55
2022-08-22T04:30:48.613Z,77.96
2022-08-22T04:33:27.860Z,78.10
2022-08-22T04:36:09.659Z,78.22
2022-08-22T04:38:57.614Z,78.33
2022-08-22T04:41:36.289Z,78.37
2022-08-22T04:44:27.648Z,78.47
2022-08-22T04:47:03.448Z,78.50
2022-08-22T04:49:48.568Z,78.52
2022-08-22T04:52:39.859Z,78.52
2022-08-22T04:55:42.537Z,78.40
2022-08-22T04:58:37.247Z,78.01
2022-08-22T05:01:27.889Z,77.82
2022-08-22T05:04:12.674Z,77.63
2022-08-22T05:06:45.905Z,77.69
2022-08-22T05:09:21.231Z,77.49
2022-08-22T05:11:57.555Z,77.66
2022-08-22T05:14:30.639Z,77.51
2022-08-22T05:16:59.990Z,77.35
2022-08-22T05:19:38.015Z,77.40
2022-08-22T05:22:14.561Z,77.44
2022-08-22T05:24:49.217Z,77.69
2022-08-22T05:27:25.118Z,77.74
2022-08-22T05:29:58.303Z,77.57
2022-08-22T05:32:30.725Z,77.39
2022-08-22T05:35:02.586Z,77.32
2022-08-22T05:37:50.090Z,77.21
2022-08-22T05:40:25.782Z,77.02
2022-08-22T05:42:56.765Z,76.59
2022-08-22T05:45:27.227Z,76.20
2022-08-22T05:48:09.208Z,75.91
2022-08-22T05:50:54.116Z,75.57
2022-08-22T05:53:36.135Z,75.31
2022-08-22T05:56:28.532Z,75.01
2022-08-22T05:59:03.758Z,74.65
2022-08-22T06:01:48.399Z,74.43
2022-08-22T06:04:48.037Z,74.18
2022-08-22T06:07:31.204Z,74.18
2022-08-22T06:10:18.854Z,74.08
2022-08-22T06:13:03.622Z,74.35
2022-08-22T06:15:45.919Z,74.47
2022-08-22T06:18:21.164Z,74.40
2022-08-22T06:20:59.885Z,74.47
2022-08-22T06:23:32.958Z,74.54
2022-08-22T06:26:01.365Z,74.46
2022-08-22T06:28:37.936Z,74.21
2022-08-22T06:31:18.465Z,73.59
2022-08-22T06:34:08.454Z,73.33
2022-08-22T06:36:41.127Z,72.98
2022-08-22T06:39:31.651Z,72.09
2022-08-22T06:42:24.480Z,71.84
2022-08-22T06:45:16.012Z,71.62
2022-08-22T06:48:00.661Z,71.09
2022-08-22T06:50:33.026Z,70.86
2022-08-22T06:53:17.654Z,70.77
2022-08-22T06:55:55.301Z,70.29
2022-08-22T06:58:45.855Z,70.10
2022-08-22T07:01:21.945Z,70.00
2022-08-22T07:03:58.132Z,69.66
2022-08-22T07:06:40.995Z,69.49
2022-08-22T07:09:25.834Z,69.47
2022-08-22T07:11:56.706Z,69.30
2022-08-22T07:14:42.369Z,69.26
2022-08-22T07:17:21.118Z,69.16
2022-08-22T07:20:21.036Z,69.17
2022-08-22T07:22:59.998Z,69.47
2022-08-22T07:25:29.356Z,69.27
2022-08-22T07:28:21.945Z,69.70
2022-08-22T07:31:08.583Z,69.70
2022-08-22T07:33:47.353Z,69.45
2022-08-22T07:36:38.701Z,68.70
2022-08-22T07:39:17.743Z,68.22
2022-08-22T07:42:10.917Z,67.44
2022-08-22T07:44:47.135Z,68.16
2022-08-22T07:47:26.110Z,68.18
2022-08-22T07:49:56.516Z,68.05
2022-08-22T07:52:25.107Z,68.05
2022-08-22T07:55:01.085Z,67.75
2022-08-22T07:57:33.518Z,67.86
2022-08-22T08:00:08.310Z,66.95
2022-08-22T08:02:41.706Z,66.91
2022-08-22T08:05:10.756Z,66.67
2022-08-22T08:07:43.624Z,66.45
2022-08-22T08:10:14.186Z,66.48
2022-08-22T08:12:57.895Z,65.30
2022-08-22T08:15:20.686Z,65.00
2022-08-22T08:17:54.173Z,64.94
2022-08-22T08:20:25.700Z,64.69
2022-08-22T08:22:55.599Z,62.18
2022-08-22T08:25:27.631Z,62.38
2022-08-22T08:28:18.990Z,62.15
2022-08-22T08:30:59.781Z,62.56
2022-08-22T08:33:30.860Z,62.41
2022-08-22T08:36:16.109Z,62.16
2022-08-22T08:38:57.683Z,62.54
2022-08-22T08:41:51.972Z,62.09
2022-08-22T08:44:39.912Z,61.89
2022-08-22T08:47:22.476Z,61.92
2022-08-22T08:50:01.391Z,62.27
2022-08-22T08:53:05.800Z,62.60
2022-08-22T08:56:08.069Z,62.27
2022-08-22T08:59:01.613Z,62.43
2022-08-22T09:01:47.012Z,62.62
2022-08-22T09:04:55.495Z,62.22
2022-08-22T09:07:52.358Z,62.44
2022-08-22T09:11:04.330Z,62.57
2022-08-22T09:14:16.661Z,61.67
2022-08-22T09:17:12.438Z,61.26
2022-08-22T09:20:19.740Z,60.25
2022-08-22T09:23:28.876Z,60.27
2022-08-22T09:26:20.183Z,60.03
2022-08-22T09:28:58.496Z,59.65
2022-08-22T09:31:47.634Z,57.23
2022-08-22T09:34:25.496Z,56.45
2022-08-22T09:37:07.532Z,56.37
2022-08-22T09:39:43.622Z,56.04
2022-08-22T09:42:22.525Z,55.89
2022-08-22T09:45:33.777Z,56.68
2022-08-22T09:48:34.043Z,57.25
2022-08-22T09:51:34.196Z,57.38
2022-08-22T09:54:16.573Z,57.33
2022-08-22T09:57:03.626Z,56.56
2022-08-22T10:00:17.603Z,56.35
2022-08-22T10:03:08.886Z,56.00
2022-08-22T10:05:53.923Z,55.39
2022-08-22T10:08:45.983Z,55.86
2022-08-22T10:11:27.247Z,53.54
2022-08-22T10:14:05.071Z,54.09
2022-08-22T10:17:21.635Z,54.38
2022-08-22T10:20:01.020Z,53.08
2022-08-22T10:23:06.119Z,51.85
2022-08-22T10:25:53.338Z,50.95
2022-08-22T10:28:39.171Z,52.48
2022-08-22T10:31:58.614Z,51.61
2022-08-22T10:34:21.799Z,50.15
2022-08-22T10:37:18.440Z,49.87
2022-08-22T10:40:14.692Z,49.86
2022-08-22T10:42:57.047Z,51.23
2022-08-22T10:45:37.429Z,51.54
2022-08-22T10:48:10.474Z,51.17
2022-08-22T10:50:47.198Z,50.27
2022-08-22T10:53:35.295Z,49.83
2022-08-22T10:56:33.769Z,49.60
2022-08-22T10:59:10.066Z,49.61
2022-08-22T11:01:44.257Z,50.27
2022-08-22T11:04:28.324Z,50.49
2022-08-22T11:07:38.099Z,51.15
2022-08-22T11:10:30.884Z,51.50
2022-08-22T11:13:14.582Z,51.63
2022-08-22T11:16:32.053Z,51.08
2022-08-22T11:19:33.781Z,51.15
2022-08-22T11:22:22.451Z,51.79
2022-08-22T11:25:40.650Z,52.46
2022-08-22T11:28:20.043Z,52.30
2022-08-22T11:31:19.403Z,49.62
2022-08-22T11:34:11.633Z,48.56
2022-08-22T11:36:47.848Z,49.45
2022-08-22T11:39:25.391Z,50.10
2022-08-22T11:42:21.792Z,50.58
2022-08-22T11:44:58.475Z,50.60
2022-08-22T11:47:31.572Z,51.07
2022-08-22T11:50:34.021Z,51.70
2022-08-22T11:53:29.821Z,52.90
2022-08-22T11:56:27.051Z,53.69
2022-08-22T11:59:02.918Z,53.09
2022-08-22T12:02:00.944Z,52.69
2022-08-22T12:04:35.820Z,52.05
2022-08-22T12:07:31.013Z,51.25
2022-08-22T12:10:19.387Z,50.83
2022-08-22T12:13:08.616Z,50.43
2022-08-22T12:15:58.592Z,49.21
2022-08-22T12:18:59.080Z,47.95
2022-08-22T12:21:56.736Z,48.13
2022-08-22T12:24:47.930Z,45.66
2022-08-22T12:27:29.953Z,47.69
2022-08-22T12:30:29.716Z,48.04
2022-08-22T12:33:27.520Z,48.23
2022-08-22T12:36:06.811Z,47.84
2022-08-22T12:39:03.092Z,47.53
2022-08-22T12:41:48.378Z,47.69
2022-08-22T12:44:41.957Z,48.28
2022-08-22T12:47:42.841Z,48.57
2022-08-22T12:50:40.463Z,49.33
2022-08-22T12:53:39.472Z,49.41
2022-08-22T12:56:21.394Z,49.34
2022-08-22T12:59:36.481Z,49.48
2022-08-22T13:02:35.527Z,49.29
2022-08-22T13:05:13.304Z,48.81
2022-08-22T13:07:48.257Z,48.23
2022-08-22T13:10:37.646Z,47.64
2022-08-22T13:13:12.180Z,47.77
2022-08-22T13:15:53.867Z,48.08
2022-08-22T13:18:31.659Z,48.43
2022-08-22T13:20:58.299Z,48.80
2022-08-22T13:23:39.518Z,49.39
2022-08-22T13:26:11.753Z,49.97
2022-08-22T13:29:24.513Z,50.77
2022-08-22T13:31:38.189Z,51.31
2022-08-22T13:34:14.485Z,51.97
2022-08-22T13:36:51.816Z,51.97
2022-08-22T13:39:27.139Z,52.09
2022-08-22T13:41:59.311Z,52.21
2022-08-22T13:44:37.601Z,52.31
2022-08-22T13:47:20.332Z,52.52
2022-08-22T13:49:55.175Z,52.90
2022-08-22T13:52:52.313Z,52.78
2022-08-22T13:55:30.117Z,52.97
2022-08-22T13:58:24.967Z,52.98
2022-08-22T14:01:04.170Z,52.11
2022-08-22T14:03:48.469Z,51.67
2022-08-22T14:06:41.419Z,51.53
2022-08-22T14:09:32.725Z,51.55
2022-08-22T14:12:15.418Z,51.80
2022-08-22T14:14:47.220Z,51.46
2022-08-22T14:17:19.917Z,51.76
2022-08-22T14:20:01.716Z,52.01
2022-08-22T14:22:36.184Z,52.41
2022-08-22T14:25:21.424Z,52.87
2022-08-22T14:28:09.592Z,53.25
2022-08-22T14:31:00.902Z,53.49
2022-08-22T14:33:40.943Z,53.74
2022-08-22T14:36:22.505Z,53.98
2022-08-22T14:39:06.978Z,53.97
2022-08-22T14:41:52.606Z,54.22
2022-08-22T14:44:33.560Z,54.55
2022-08-22T14:47:32.672Z,54.88
2022-08-22T14:49:59.783Z,55.15
2022-08-22T14:52:45.332Z,55.33
2022-08-22T14:55:26.992Z,55.50
2022-08-22T14:58:05.937Z,55.73
2022-08-22T15:00:43.605Z,56.03
2022-08-22T15:03:23.448Z,56.06
2022-08-22T15:06:07.924Z,56.15
2022-08-22T15:08:49.481Z,56.24
2022-08-22T15:11:24.669Z,56.03
2022-08-22T15:14:15.146Z,54.39
2022-08-22T15:16:54.032Z,54.72
2022-08-22T15:19:35.440Z,55.96
2022-08-22T15:22:20.350Z,56.67
2022-08-22T15:25:17.775Z,57.91
2022-08-22T15:28:14.450Z,58.90
2022-08-22T15:30:49.723Z,60.98
2022-08-22T15:33:38.579Z,64.37
2022-08-22T15:36:20.627Z,66.08
2022-08-22T15:38:56.473Z,65.55
2022-08-22T15:41:36.702Z,66.02
2022-08-22T15:44:33.014Z,67.45
2022-08-22T15:46:58.786Z,67.50
2022-08-22T15:49:30.898Z,67.94
2022-08-22T15:52:04.272Z,68.28
2022-08-22T15:54:51.104Z,68.58
2022-08-22T15:57:37.776Z,69.54
2022-08-22T16:00:30.877Z,69.69
2022-08-22T16:03:04.059Z,69.62
2022-08-22T16:05:59.166Z,70.10
2022-08-22T16:08:38.614Z,70.58
2022-08-22T16:11:32.252Z,70.58
2022-08-22T16:14:21.385Z,70.94
2022-08-22T16:16:58.023Z,71.30
2022-08-22T16:19:29.091Z,70.87
2022-08-22T16:22:02.214Z,71.00
2022-08-22T16:24:33.891Z,71.21
2022-08-22T16:27:16.627Z,71.59
2022-08-22T16:29:46.208Z,72.29
2022-08-22T16:32:19.237Z,72.29
2022-08-22T16:34:47.829Z,72.55
2022-08-22T16:37:27.047Z,72.40
2022-08-22T16:40:05.257Z,72.67
2022-08-22T16:42:40.964Z,72.93
2022-08-22T16:45:26.230Z,73.04
2022-08-22T16:47:58.879Z,73.21
2022-08-22T16:50:40.346Z,73.47
2022-08-22T16:53:22.305Z,73.70
2022-08-22T16:56:10.378Z,74.79
2022-08-22T16:59:22.313Z,73.97
2022-08-22T17:04:39.511Z,74.06
2022-08-22T17:07:18.267Z,74.08
2022-08-22T17:10:17.318Z,73.90
2022-08-22T17:13:26.582Z,73.60
2022-08-22T17:16:28.211Z,73.49
2022-08-22T17:19:16.510Z,73.30
2022-08-22T17:21:53.686Z,73.14
2022-08-22T17:24:42.352Z,72.93
2022-08-22T17:27:39.076Z,72.78
2022-08-22T17:30:23.319Z,72.65
2022-08-22T17:33:17.599Z,72.85
2022-08-22T17:35:54.773Z,72.81
2022-08-22T17:38:45.419Z,73.09
2022-08-22T17:41:38.431Z,72.96
2022-08-22T17:44:39.935Z,73.21
2022-08-22T17:47:15.641Z,73.68
2022-08-22T17:50:00.491Z,73.86
2022-08-22T17:52:33.807Z,74.14
2022-08-22T17:55:34.318Z,74.33
2022-08-22T17:58:07.278Z,74.46
2022-08-22T18:00:48.788Z,74.55
2022-08-22T18:03:33.684Z,74.53
2022-08-22T18:06:09.893Z,74.55
2022-08-22T18:12:04.220Z,74.49
2022-08-22T18:14:52.342Z,74.37
2022-08-22T18:17:34.350Z,74.27
2022-08-22T18:20:10.415Z,74.04
2022-08-22T18:22:52.208Z,74.12
2022-08-22T18:25:37.680Z,74.12
2022-08-22T18:28:10.830Z,74.27
2022-08-22T18:30:52.418Z,74.31
2022-08-22T18:33:32.907Z,74.76
2022-08-22T18:36:15.337Z,74.76
2022-08-22T18:39:23.459Z,74.81
2022-08-22T18:42:02.947Z,74.76
2022-08-22T18:44:34.918Z,74.83
2022-08-22T18:47:22.447Z,74.89
2022-08-22T18:49:54.040Z,74.81
2022-08-22T18:52:30.612Z,74.78
2022-08-22T18:55:23.163Z,74.86
2022-08-22T18:58:17.680Z,74.79
2022-08-22T19:00:59.602Z,74.55
2022-08-22T19:03:53.339Z,74.18
2022-08-22T19:06:40.957Z,74.16
2022-08-22T19:09:33.889Z,75.03
2022-08-22T19:12:12.971Z,74.50
2022-08-22T19:15:16.248Z,74.39
2022-08-22T19:18:01.649Z,74.49
2022-08-22T19:20:55.286Z,74.37
2022-08-22T19:23:43.157Z,74.57
2022-08-22T19:26:37.101Z,74.78
2022-08-22T19:29:20.976Z,74.99
2022-08-22T19:32:02.680Z,75.26
2022-08-22T19:34:36.791Z,75.52
2022-08-22T19:37:30.433Z,75.80
2022-08-22T19:40:05.884Z,75.72
2022-08-22T19:42:38.082Z,75.80
2022-08-22T19:45:28.560Z,75.88
2022-08-22T19:48:10.524Z,75.98
2022-08-22T19:50:37.970Z,75.99
2022-08-22T19:53:41.610Z,75.89
2022-08-22T19:56:32.177Z,75.65
2022-08-22T19:59:14.689Z,75.57
2022-08-22T20:02:08.998Z,75.33
2022-08-22T20:04:54.382Z,75.23
2022-08-22T20:08:04.834Z,75.11
2022-08-22T20:10:56.322Z,75.06
2022-08-22T20:13:28.825Z,75.01
2022-08-22T20:16:07.866Z,75.13
2022-08-22T20:19:09.225Z,75.39
2022-08-22T20:21:58.724Z,75.46
2022-08-22T20:24:40.047Z,75.65
2022-08-22T20:27:21.925Z,75.61
2022-08-22T20:30:04.332Z,75.66
2022-08-22T20:32:39.853Z,75.86
2022-08-22T20:35:12.516Z,75.91
2022-08-22T20:38:05.770Z,76.03
2022-08-22T20:40:56.501Z,76.21
2022-08-22T20:43:34.612Z,76.27
2022-08-22T20:46:45.360Z,76.11
2022-08-22T20:49:22.013Z,75.79
2022-08-22T20:51:56.911Z,75.74
2022-08-22T20:54:32.421Z,75.62
2022-08-22T20:57:15.518Z,75.64
2022-08-22T20:59:54.799Z,75.54
2022-08-22T21:02:37.091Z,75.58
2022-08-22T21:05:17.619Z,75.72
2022-08-22T21:08:05.825Z,75.77
2022-08-22T21:10:55.016Z,75.84
2022-08-22T21:13:31.334Z,75.99
2022-08-22T21:16:15.976Z,76.00
2022-08-22T21:18:52.893Z,76.25
2022-08-22T21:21:28.497Z,76.50
2022-08-22T21:24:04.573Z,76.69
2022-08-22T21:26:53.007Z,76.72
2022-08-22T21:29:26.561Z,76.76
2022-08-22T21:32:16.283Z,76.96
2022-08-22T21:34:48.584Z,76.70
2022-08-22T21:37:24.426Z,76.45
2022-08-22T21:40:15.830Z,76.21
2022-08-22T21:43:05.094Z,75.96
2022-08-22T21:45:43.119Z,75.80
2022-08-22T21:48:37.181Z,75.72
2022-08-22T21:51:42.940Z,75.48
2022-08-22T21:54:35.615Z,75.52
2022-08-22T21:57:14.417Z,75.42
2022-08-22T21:59:51.880Z,75.52
2022-08-22T22:02:39.983Z,75.71
2022-08-22T22:05:12.857Z,75.80
2022-08-22T22:07:44.635Z,75.83
2022-08-22T22:10:16.868Z,75.95
2022-08-22T22:12:47.401Z,76.11
2022-08-22T22:15:19.271Z,76.42
2022-08-22T22:17:47.252Z,76.58
2022-08-22T22:20:17.193Z,76.58
2022-08-22T22:22:46.850Z,76.70
2022-08-22T22:25:40.263Z,76.84
2022-08-22T22:27:47.399Z,76.70
2022-08-22T22:30:17.968Z,76.79
2022-08-22T22:32:48.762Z,76.75
2022-08-22T22:35:18.833Z,76.47
2022-08-22T22:37:47.032Z,76.36
2022-08-22T22:40:14.983Z,76.35
2022-08-22T22:42:43.061Z,76.35
2022-08-22T22:45:11.158Z,76.33
2022-08-22T22:47:38.782Z,76.36
2022-08-22T22:50:07.864Z,76.45
2022-08-22T22:52:40.704Z,76.45
2022-08-22T22:55:07.728Z,76.52
2022-08-22T22:57:42.488Z,76.68
2022-08-22T23:00:07.498Z,76.91
2022-08-22T23:02:35.321Z,77.05
2022-08-22T23:05:03.249Z,77.05
2022-08-22T23:07:33.998Z,77.08
2022-08-22T23:10:02.287Z,77.00
2022-08-22T23:12:30.228Z,77.12
2022-08-22T23:14:57.929Z,77.12
2022-08-22T23:17:26.000Z,77.30
2022-08-22T23:19:53.703Z,77.36
2022-08-22T23:22:21.232Z,77.37
2022-08-22T23:24:50.025Z,77.19
2022-08-22T23:27:18.117Z,77.18
2022-08-22T23:29:46.013Z,77.02
2022-08-22T23:32:14.606Z,76.87
2022-08-22T23:34:46.188Z,76.75
2022-08-22T23:37:18.148Z,76.62
2022-08-22T23:39:46.122Z,76.49
2022-08-22T23:42:15.921Z,76.57
2022-08-22T23:44:45.480Z,76.46
2022-08-22T23:47:14.474Z,76.53
2022-08-22T23:49:42.755Z,76.53
2022-08-22T23:52:12.524Z,76.58
2022-08-22T23:54:40.184Z,76.75
2022-08-22T23:57:12.160Z,76.96
2022-08-22T23:59:40.739Z,77.05
